»·PEaware :: N982TB KEUG-KPDX

N982TB :: KEUG-KPDX

FLIGHT INFORMATION

Flight Status: Arrived
Operator: Privately registered:
United States
More flights under this callsign
Pilot: Anonymous 15639 (15639)
Aircraft: SOCATA TBM-900
(TBM9)
More flights by this aircraft type
Origin: KEUG Mahlon Sweet
United States
Destination: KPDX Portland Intl
United States
More flights between these airports :: More routes between these airports
Route: CITYY TMBRS2
File this flight plan on PilotEdge
Remarks: PBN / D2 DOF / 181108 REG / N982TB PER / B RMK / TCAS SIMBRIEF
Altitude:
(Current/Filed)
17,000ft
Speed:
(Current/Filed)
289kts
Departed: 08-Nov-18 09:23 AM
Arrived: 08-Nov-18 09:57 AM
Distance/Time
Traveled:
92nm/0:33
Distance/Time
To Go:
Arrived

Flight Plot

Page will automatically refresh every two minutes.

Flight plan parsing failed; only flown route is shown


Map Options




Map Legend


Flown Route
Filed Route
Departure Airport
Arrival Airport
Navaid (VOR, NDB)
Fix

Horizontal Profiles

Position Reports

Time Latitude Longitude Heading Altitude Ground
Speed
08-Nov-18 09:12 44.117924 -123.215193 42 377ft 0kts
08-Nov-18 09:13 44.117924 -123.215193 42 377ft 0kts
08-Nov-18 09:14 44.117924 -123.215192 42 377ft 0kts
08-Nov-18 09:15 44.117924 -123.215192 42 377ft 0kts
08-Nov-18 09:16 44.117924 -123.215192 42 377ft 0kts
08-Nov-18 09:17 44.117924 -123.215192 42 377ft 0kts
08-Nov-18 09:18 44.117924 -123.215192 42 377ft 0kts
08-Nov-18 09:19 44.117924 -123.215192 42 377ft 0kts
08-Nov-18 09:20 44.117924 -123.215192 42 377ft 0kts
08-Nov-18 09:21 44.117736 -123.215806 215 377ft 12kts
08-Nov-18 09:22 44.115588 -123.216345 244 377ft 0kts
08-Nov-18 09:23 44.114698 -123.216889 179 377ft 13kts
08-Nov-18 09:24 44.113655 -123.217323 269 377ft 0kts
08-Nov-18 09:25 44.113655 -123.217481 270 377ft 7kts
08-Nov-18 09:26 44.120017 -123.218901 0 429ft 104kts
08-Nov-18 09:27 44.153504 -123.222104 358 2558ft 121kts
08-Nov-18 09:28 44.185956 -123.225681 358 4747ft 120kts
08-Nov-18 09:29 44.224689 -123.229974 358 6650ft 148kts
08-Nov-18 09:30 44.265626 -123.232454 26 8674ft 151kts
08-Nov-18 09:31 44.289492 -123.180200 54 10546ft 160kts
08-Nov-18 09:32 44.313719 -123.127670 52 12524ft 166kts
08-Nov-18 09:33 44.339712 -123.072603 51 14433ft 175kts
08-Nov-18 09:34 44.366495 -123.015944 50 16329ft 179kts
08-Nov-18 09:35 44.396598 -122.952324 51 17035ft 228kts
08-Nov-18 09:36 44.439507 -122.879489 20 17022ft 252kts
08-Nov-18 09:37 44.505956 -122.843109 18 17011ft 260kts
08-Nov-18 09:38 44.573868 -122.807528 17 17000ft 262kts
08-Nov-18 09:39 44.642214 -122.771716 17 16972ft 263kts
08-Nov-18 09:40 44.710558 -122.735811 17 16971ft 263kts
08-Nov-18 09:41 44.778883 -122.699824 17 16971ft 263kts
08-Nov-18 09:42 44.850951 -122.683503 2 16085ft 275kts
08-Nov-18 09:43 44.928099 -122.675709 3 14560ft 279kts
08-Nov-18 09:44 45.004489 -122.667944 3 13216ft 274kts
08-Nov-18 09:45 45.079559 -122.660326 4 11794ft 276kts
08-Nov-18 09:46 45.154540 -122.652684 4 10312ft 269kts
08-Nov-18 09:47 45.226130 -122.645123 8 8830ft 262kts
08-Nov-18 09:48 45.263201 -122.568514 56 7159ft 231kts
08-Nov-18 09:49 45.294958 -122.493663 56 5927ft 217kts
08-Nov-18 09:50 45.325643 -122.421139 56 4755ft 213kts
08-Nov-18 09:51 45.362109 -122.360121 17 3990ft 195kts
08-Nov-18 09:52 45.411252 -122.339774 13 3986ft 180kts
08-Nov-18 09:53 45.458805 -122.321172 13 3966ft 178kts
08-Nov-18 09:54 45.498074 -122.348346 302 3395ft 178kts
08-Nov-18 09:55 45.522791 -122.410036 299 2181ft 169kts
08-Nov-18 09:56 45.543520 -122.463778 299 1684ft 135kts
08-Nov-18 09:57 45.559380 -122.504709 299 1068ft 95kts
08-Nov-18 09:58 45.571360 -122.535553 299 584ft 84kts
08-Nov-18 09:59 45.583367 -122.566334 299 105ft 98kts
08-Nov-18 10:00 45.590314 -122.586612 273 32ft 20kts
08-Nov-18 10:01 45.590081 -122.586735 118 32ft 6kts
08-Nov-18 10:02 45.588661 -122.583084 119 32ft 14kts
08-Nov-18 10:03 45.586834 -122.581919 230 32ft 5kts
08-Nov-18 10:04 45.587411 -122.584288 298 32ft 0kts
08-Nov-18 10:05 45.587411 -122.584288 298 32ft 0kts
08-Nov-18 10:06 45.587411 -122.584288 298 32ft 0kts

Navigation Log

Ident Type
Flight plan parsing failed, navigation log unavailable